sensor_id;sensor_type;location;lat;lon;timestamp;temperature;humidity
4749;DHT22;2388;53.582;9.962;2022-12-29T00:01:44;8.40;99.90
4749;DHT22;2388;53.582;9.962;2022-12-29T00:04:13;8.50;99.90
4749;DHT22;2388;53.582;9.962;2022-12-29T00:06:42;8.50;99.90
4749;DHT22;2388;53.582;9.962;2022-12-29T00:09:08;8.50;99.90
4749;DHT22;2388;53.582;9.962;2022-12-29T00:11:35;8.50;99.90
4749;DHT22;2388;53.582;9.962;2022-12-29T00:14:00;8.50;99.90
4749;DHT22;2388;53.582;9.962;2022-12-29T00:16:45;8.60;99.90
4749;DHT22;2388;53.582;9.962;2022-12-29T00:19:11;8.60;99.90
4749;DHT22;2388;53.582;9.962;2022-12-29T00:21:56;8.60;99.90
4749;DHT22;2388;53.582;9.962;2022-12-29T00:24:40;8.60;99.90
4749;DHT22;2388;53.582;9.962;2022-12-29T00:27:24;8.60;99.90
4749;DHT22;2388;53.582;9.962;2022-12-29T00:30:11;8.70;99.90
4749;DHT22;2388;53.582;9.962;2022-12-29T00:32:55;8.70;99.90
4749;DHT22;2388;53.582;9.962;2022-12-29T00:35:45;8.70;99.90
4749;DHT22;2388;53.582;9.962;2022-12-29T00:38:12;8.80;99.90
4749;DHT22;2388;53.582;9.962;2022-12-29T00:40:57;8.80;99.90
4749;DHT22;2388;53.582;9.962;2022-12-29T00:43:41;8.80;99.90
4749;DHT22;2388;53.582;9.962;2022-12-29T00:46:25;8.80;99.90
4749;DHT22;2388;53.582;9.962;2022-12-29T00:48:50;8.80;99.90
4749;DHT22;2388;53.582;9.962;2022-12-29T00:51:34;8.80;99.90
4749;DHT22;2388;53.582;9.962;2022-12-29T00:54:00;8.90;99.90
4749;DHT22;2388;53.582;9.962;2022-12-29T00:56:25;8.90;99.90
4749;DHT22;2388;53.582;9.962;2022-12-29T00:58:51;8.90;99.90
4749;DHT22;2388;53.582;9.962;2022-12-29T01:01:16;8.90;99.90
4749;DHT22;2388;53.582;9.962;2022-12-29T01:03:42;8.90;99.90
4749;DHT22;2388;53.582;9.962;2022-12-29T01:06:09;8.90;99.90
4749;DHT22;2388;53.582;9.962;2022-12-29T01:08:35;9.00;99.90
4749;DHT22;2388;53.582;9.962;2022-12-29T01:11:09;9.00;99.90
4749;DHT22;2388;53.582;9.962;2022-12-29T01:13:35;9.00;99.90
4749;DHT22;2388;53.582;9.962;2022-12-29T01:16:01;9.00;99.90
4749;DHT22;2388;53.582;9.962;2022-12-29T01:18:27;9.00;99.90
4749;DHT22;2388;53.582;9.962;2022-12-29T01:21:04;9.00;99.90
4749;DHT22;2388;53.582;9.962;2022-12-29T01:23:31;9.00;99.90
4749;DHT22;2388;53.582;9.962;2022-12-29T01:25:57;9.10;99.90
4749;DHT22;2388;53.582;9.962;2022-12-29T01:28:32;9.10;99.90
4749;DHT22;2388;53.582;9.962;2022-12-29T01:31:00;9.10;99.90
4749;DHT22;2388;53.582;9.962;2022-12-29T01:33:26;9.20;99.90
4749;DHT22;2388;53.582;9.962;2022-12-29T01:35:52;9.10;99.90
4749;DHT22;2388;53.582;9.962;2022-12-29T01:38:17;9.20;99.90
4749;DHT22;2388;53.582;9.962;2022-12-29T01:40:44;9.10;99.90
4749;DHT22;2388;53.582;9.962;2022-12-29T01:43:13;9.10;99.90
4749;DHT22;2388;53.582;9.962;2022-12-29T01:45:48;9.10;99.90
4749;DHT22;2388;53.582;9.962;2022-12-29T01:48:16;9.10;99.90
4749;DHT22;2388;53.582;9.962;2022-12-29T01:50:47;9.10;99.90
4749;DHT22;2388;53.582;9.962;2022-12-29T01:53:20;9.10;99.90
4749;DHT22;2388;53.582;9.962;2022-12-29T01:55:54;9.10;99.90
4749;DHT22;2388;53.582;9.962;2022-12-29T01:58:22;9.10;99.90
4749;DHT22;2388;53.582;9.962;2022-12-29T02:00:49;9.10;99.90
4749;DHT22;2388;53.582;9.962;2022-12-29T02:03:16;9.10;99.90
4749;DHT22;2388;53.582;9.962;2022-12-29T02:08:50;9.20;99.90
4749;DHT22;2388;53.582;9.962;2022-12-29T02:11:18;9.10;99.90
4749;DHT22;2388;53.582;9.962;2022-12-29T02:13:44;9.20;99.90
4749;DHT22;2388;53.582;9.962;2022-12-29T02:19:41;9.20;99.90
4749;DHT22;2388;53.582;9.962;2022-12-29T02:33:48;9.30;99.90
4749;DHT22;2388;53.582;9.962;2022-12-29T02:39:12;9.40;99.90
4749;DHT22;2388;53.582;9.962;2022-12-29T02:46:53;9.50;99.90
4749;DHT22;2388;53.582;9.962;2022-12-29T02:49:36;9.50;99.90
4749;DHT22;2388;53.582;9.962;2022-12-29T02:52:22;9.50;99.90
4749;DHT22;2388;53.582;9.962;2022-12-29T02:54:53;9.50;99.90
4749;DHT22;2388;53.582;9.962;2022-12-29T02:59:54;9.50;99.90
4749;DHT22;2388;53.582;9.962;2022-12-29T03:02:57;9.50;99.90
4749;DHT22;2388;53.582;9.962;2022-12-29T03:05:52;9.50;99.90
4749;DHT22;2388;53.582;9.962;2022-12-29T03:11:09;9.50;99.90
4749;DHT22;2388;53.582;9.962;2022-12-29T03:17:18;9.40;99.90
4749;DHT22;2388;53.582;9.962;2022-12-29T03:19:48;9.50;99.90
4749;DHT22;2388;53.582;9.962;2022-12-29T03:22:21;9.40;99.90
4749;DHT22;2388;53.582;9.962;2022-12-29T03:25:22;9.40;99.90
4749;DHT22;2388;53.582;9.962;2022-12-29T03:27:58;9.40;99.90
4749;DHT22;2388;53.582;9.962;2022-12-29T03:30:26;9.40;99.90
4749;DHT22;2388;53.582;9.962;2022-12-29T03:33:00;9.40;99.90
4749;DHT22;2388;53.582;9.962;2022-12-29T03:35:30;9.40;99.90
4749;DHT22;2388;53.582;9.962;2022-12-29T03:40:38;9.50;99.90
4749;DHT22;2388;53.582;9.962;2022-12-29T03:43:05;9.50;99.90
4749;DHT22;2388;53.582;9.962;2022-12-29T03:45:31;9.50;99.90
4749;DHT22;2388;53.582;9.962;2022-12-29T03:47:56;9.50;99.90
4749;DHT22;2388;53.582;9.962;2022-12-29T03:50:21;9.60;99.90
4749;DHT22;2388;53.582;9.962;2022-12-29T03:52:47;9.60;99.90
4749;DHT22;2388;53.582;9.962;2022-12-29T03:55:13;9.60;99.90
4749;DHT22;2388;53.582;9.962;2022-12-29T03:57:38;9.60;99.90
4749;DHT22;2388;53.582;9.962;2022-12-29T04:00:05;9.60;99.90
4749;DHT22;2388;53.582;9.962;2022-12-29T04:02:31;9.60;99.90
4749;DHT22;2388;53.582;9.962;2022-12-29T04:04:57;9.70;99.90
4749;DHT22;2388;53.582;9.962;2022-12-29T04:07:22;9.70;99.90
4749;DHT22;2388;53.582;9.962;2022-12-29T04:09:48;9.60;99.90
4749;DHT22;2388;53.582;9.962;2022-12-29T04:12:13;9.70;99.90
4749;DHT22;2388;53.582;9.962;2022-12-29T04:14:39;9.70;99.90
4749;DHT22;2388;53.582;9.962;2022-12-29T04:17:05;9.70;99.90
4749;DHT22;2388;53.582;9.962;2022-12-29T04:19:31;9.70;99.90
4749;DHT22;2388;53.582;9.962;2022-12-29T04:21:56;9.70;99.90
4749;DHT22;2388;53.582;9.962;2022-12-29T04:24:22;9.70;99.90
4749;DHT22;2388;53.582;9.962;2022-12-29T04:26:47;9.70;99.90
4749;DHT22;2388;53.582;9.962;2022-12-29T04:29:13;9.60;99.90
4749;DHT22;2388;53.582;9.962;2022-12-29T04:31:38;9.70;99.90
4749;DHT22;2388;53.582;9.962;2022-12-29T04:34:04;9.60;99.90
4749;DHT22;2388;53.582;9.962;2022-12-29T04:36:29;9.70;99.90
4749;DHT22;2388;53.582;9.962;2022-12-29T04:38:54;9.70;99.90
4749;DHT22;2388;53.582;9.962;2022-12-29T04:41:20;9.70;99.90
4749;DHT22;2388;53.582;9.962;2022-12-29T04:43:45;9.70;99.90
4749;DHT22;2388;53.582;9.962;2022-12-29T04:46:11;9.70;99.90
4749;DHT22;2388;53.582;9.962;2022-12-29T04:48:36;9.80;99.90
4749;DHT22;2388;53.582;9.962;2022-12-29T04:51:02;9.80;99.90
4749;DHT22;2388;53.582;9.962;2022-12-29T04:53:28;9.80;99.90
4749;DHT22;2388;53.582;9.962;2022-12-29T04:55:53;9.80;99.90
4749;DHT22;2388;53.582;9.962;2022-12-29T04:58:19;9.80;99.90
4749;DHT22;2388;53.582;9.962;2022-12-29T05:00:45;9.90;99.90
4749;DHT22;2388;53.582;9.962;2022-12-29T05:03:10;9.90;99.90
4749;DHT22;2388;53.582;9.962;2022-12-29T05:05:36;9.90;99.90
4749;DHT22;2388;53.582;9.962;2022-12-29T05:08:02;9.90;99.90
4749;DHT22;2388;53.582;9.962;2022-12-29T05:10:27;9.90;99.90
4749;DHT22;2388;53.582;9.962;2022-12-29T05:12:53;9.90;99.90
4749;DHT22;2388;53.582;9.962;2022-12-29T05:15:19;10.00;99.90
4749;DHT22;2388;53.582;9.962;2022-12-29T05:17:44;9.90;99.90
4749;DHT22;2388;53.582;9.962;2022-12-29T05:20:10;9.90;99.90
4749;DHT22;2388;53.582;9.962;2022-12-29T05:22:36;9.90;99.90
4749;DHT22;2388;53.582;9.962;2022-12-29T05:25:02;10.00;99.90
4749;DHT22;2388;53.582;9.962;2022-12-29T05:27:27;10.00;99.90
4749;DHT22;2388;53.582;9.962;2022-12-29T05:29:53;10.10;99.90
4749;DHT22;2388;53.582;9.962;2022-12-29T05:32:19;10.10;99.90
4749;DHT22;2388;53.582;9.962;2022-12-29T05:34:44;10.00;99.90
4749;DHT22;2388;53.582;9.962;2022-12-29T05:37:10;10.00;99.90
4749;DHT22;2388;53.582;9.962;2022-12-29T05:39:35;10.10;99.90
4749;DHT22;2388;53.582;9.962;2022-12-29T05:42:01;10.10;99.90
4749;DHT22;2388;53.582;9.962;2022-12-29T05:44:26;10.10;99.90
4749;DHT22;2388;53.582;9.962;2022-12-29T05:46:52;10.20;99.90
4749;DHT22;2388;53.582;9.962;2022-12-29T05:49:17;10.20;99.90
4749;DHT22;2388;53.582;9.962;2022-12-29T05:51:43;10.20;99.90
4749;DHT22;2388;53.582;9.962;2022-12-29T05:54:08;10.20;99.90
4749;DHT22;2388;53.582;9.962;2022-12-29T05:56:34;10.30;99.90
4749;DHT22;2388;53.582;9.962;2022-12-29T05:59:00;10.30;99.90
4749;DHT22;2388;53.582;9.962;2022-12-29T06:01:25;10.30;99.90
4749;DHT22;2388;53.582;9.962;2022-12-29T06:03:51;10.30;99.90
4749;DHT22;2388;53.582;9.962;2022-12-29T06:06:16;10.30;99.90
4749;DHT22;2388;53.582;9.962;2022-12-29T06:08:42;10.30;99.90
4749;DHT22;2388;53.582;9.962;2022-12-29T06:11:08;10.40;99.90
4749;DHT22;2388;53.582;9.962;2022-12-29T06:13:33;10.40;99.90
4749;DHT22;2388;53.582;9.962;2022-12-29T06:15:58;10.40;99.90
4749;DHT22;2388;53.582;9.962;2022-12-29T06:18:24;10.40;99.90
4749;DHT22;2388;53.582;9.962;2022-12-29T06:20:49;10.40;99.90
4749;DHT22;2388;53.582;9.962;2022-12-29T06:23:15;10.40;99.90
4749;DHT22;2388;53.582;9.962;2022-12-29T06:25:41;10.40;99.90
4749;DHT22;2388;53.582;9.962;2022-12-29T06:28:07;10.40;99.90
4749;DHT22;2388;53.582;9.962;2022-12-29T06:30:33;10.40;99.90
4749;DHT22;2388;53.582;9.962;2022-12-29T06:32:59;10.30;99.90
4749;DHT22;2388;53.582;9.962;2022-12-29T06:35:24;10.30;99.90
4749;DHT22;2388;53.582;9.962;2022-12-29T06:37:50;10.30;99.90
4749;DHT22;2388;53.582;9.962;2022-12-29T06:40:16;10.30;99.90
4749;DHT22;2388;53.582;9.962;2022-12-29T06:42:41;10.20;99.90
4749;DHT22;2388;53.582;9.962;2022-12-29T06:45:07;10.20;99.90
4749;DHT22;2388;53.582;9.962;2022-12-29T06:47:34;10.20;99.90
4749;DHT22;2388;53.582;9.962;2022-12-29T06:49:59;10.20;99.90
4749;DHT22;2388;53.582;9.962;2022-12-29T06:52:25;10.20;99.90
4749;DHT22;2388;53.582;9.962;2022-12-29T06:54:51;10.20;99.90
4749;DHT22;2388;53.582;9.962;2022-12-29T06:57:16;10.20;99.90
4749;DHT22;2388;53.582;9.962;2022-12-29T06:59:42;10.10;99.90
4749;DHT22;2388;53.582;9.962;2022-12-29T07:02:10;10.10;99.90
4749;DHT22;2388;53.582;9.962;2022-12-29T07:04:35;10.10;99.90
4749;DHT22;2388;53.582;9.962;2022-12-29T07:07:01;10.10;99.90
4749;DHT22;2388;53.582;9.962;2022-12-29T07:09:26;10.10;99.90
4749;DHT22;2388;53.582;9.962;2022-12-29T07:11:52;10.10;99.90
4749;DHT22;2388;53.582;9.962;2022-12-29T07:14:17;10.00;99.90
4749;DHT22;2388;53.582;9.962;2022-12-29T07:16:43;10.00;99.90
4749;DHT22;2388;53.582;9.962;2022-12-29T07:19:08;10.10;99.90
4749;DHT22;2388;53.582;9.962;2022-12-29T07:21:33;10.10;99.90
4749;DHT22;2388;53.582;9.962;2022-12-29T07:23:59;10.10;99.90
4749;DHT22;2388;53.582;9.962;2022-12-29T07:26:24;10.00;99.90
4749;DHT22;2388;53.582;9.962;2022-12-29T07:28:50;10.00;99.90
4749;DHT22;2388;53.582;9.962;2022-12-29T07:31:18;10.10;99.90
4749;DHT22;2388;53.582;9.962;2022-12-29T07:33:44;10.10;99.90
4749;DHT22;2388;53.582;9.962;2022-12-29T07:36:11;10.10;99.90
4749;DHT22;2388;53.582;9.962;2022-12-29T07:38:36;10.00;99.90
4749;DHT22;2388;53.582;9.962;2022-12-29T07:41:02;10.00;99.90
4749;DHT22;2388;53.582;9.962;2022-12-29T07:43:28;10.00;99.90
4749;DHT22;2388;53.582;9.962;2022-12-29T07:45:53;10.00;99.90
4749;DHT22;2388;53.582;9.962;2022-12-29T07:48:19;10.00;99.90
4749;DHT22;2388;53.582;9.962;2022-12-29T07:50:45;10.00;99.90
4749;DHT22;2388;53.582;9.962;2022-12-29T07:53:10;10.10;99.90
4749;DHT22;2388;53.582;9.962;2022-12-29T07:55:36;10.10;99.90
4749;DHT22;2388;53.582;9.962;2022-12-29T07:58:01;10.10;99.90
4749;DHT22;2388;53.582;9.962;2022-12-29T08:00:27;10.10;99.90
4749;DHT22;2388;53.582;9.962;2022-12-29T08:02:52;10.10;99.90
4749;DHT22;2388;53.582;9.962;2022-12-29T08:05:18;10.10;99.90
4749;DHT22;2388;53.582;9.962;2022-12-29T08:07:43;10.10;99.90
4749;DHT22;2388;53.582;9.962;2022-12-29T08:10:10;10.10;99.90
4749;DHT22;2388;53.582;9.962;2022-12-29T08:12:37;10.00;99.90
4749;DHT22;2388;53.582;9.962;2022-12-29T08:15:03;10.00;99.90
4749;DHT22;2388;53.582;9.962;2022-12-29T08:17:29;10.00;99.90
4749;DHT22;2388;53.582;9.962;2022-12-29T08:19:54;10.00;99.90
4749;DHT22;2388;53.582;9.962;2022-12-29T08:22:19;10.00;99.90
4749;DHT22;2388;53.582;9.962;2022-12-29T08:24:45;10.00;99.90
4749;DHT22;2388;53.582;9.962;2022-12-29T08:27:10;10.00;99.90
4749;DHT22;2388;53.582;9.962;2022-12-29T08:29:36;10.00;99.90
4749;DHT22;2388;53.582;9.962;2022-12-29T08:32:01;10.00;99.90
4749;DHT22;2388;53.582;9.962;2022-12-29T08:34:27;10.00;99.90
4749;DHT22;2388;53.582;9.962;2022-12-29T08:36:52;10.00;99.90
4749;DHT22;2388;53.582;9.962;2022-12-29T08:39:18;10.00;99.90
4749;DHT22;2388;53.582;9.962;2022-12-29T08:41:43;10.00;99.90
4749;DHT22;2388;53.582;9.962;2022-12-29T08:44:09;10.00;99.90
4749;DHT22;2388;53.582;9.962;2022-12-29T08:46:34;10.00;99.90
4749;DHT22;2388;53.582;9.962;2022-12-29T08:49:00;10.10;99.90
4749;DHT22;2388;53.582;9.962;2022-12-29T08:51:26;10.10;99.90
4749;DHT22;2388;53.582;9.962;2022-12-29T08:53:51;10.10;99.90
4749;DHT22;2388;53.582;9.962;2022-12-29T08:56:17;10.10;99.90
4749;DHT22;2388;53.582;9.962;2022-12-29T08:58:42;10.10;99.90
4749;DHT22;2388;53.582;9.962;2022-12-29T09:01:09;10.10;99.90
4749;DHT22;2388;53.582;9.962;2022-12-29T09:03:35;10.10;99.90
4749;DHT22;2388;53.582;9.962;2022-12-29T09:06:00;10.30;99.90
4749;DHT22;2388;53.582;9.962;2022-12-29T09:08:26;10.20;99.90
4749;DHT22;2388;53.582;9.962;2022-12-29T09:10:51;10.30;99.90
4749;DHT22;2388;53.582;9.962;2022-12-29T09:13:18;10.30;99.90
4749;DHT22;2388;53.582;9.962;2022-12-29T09:15:43;10.30;99.90
4749;DHT22;2388;53.582;9.962;2022-12-29T09:18:10;10.30;99.90
4749;DHT22;2388;53.582;9.962;2022-12-29T09:20:36;10.30;99.90
4749;DHT22;2388;53.582;9.962;2022-12-29T09:23:02;10.30;99.90
4749;DHT22;2388;53.582;9.962;2022-12-29T09:25:28;10.30;99.90
4749;DHT22;2388;53.582;9.962;2022-12-29T09:27:53;10.30;99.90
4749;DHT22;2388;53.582;9.962;2022-12-29T09:30:21;10.40;99.90
4749;DHT22;2388;53.582;9.962;2022-12-29T09:32:48;10.40;99.90
4749;DHT22;2388;53.582;9.962;2022-12-29T09:35:14;10.40;99.90
4749;DHT22;2388;53.582;9.962;2022-12-29T09:37:40;10.50;99.90
4749;DHT22;2388;53.582;9.962;2022-12-29T09:40:06;10.50;99.90
4749;DHT22;2388;53.582;9.962;2022-12-29T09:42:39;10.50;99.90
4749;DHT22;2388;53.582;9.962;2022-12-29T09:45:16;10.50;99.90
4749;DHT22;2388;53.582;9.962;2022-12-29T09:47:45;10.50;99.90
4749;DHT22;2388;53.582;9.962;2022-12-29T09:50:15;10.50;99.90
4749;DHT22;2388;53.582;9.962;2022-12-29T09:52:58;10.50;99.90
4749;DHT22;2388;53.582;9.962;2022-12-29T09:55:36;10.50;99.90
4749;DHT22;2388;53.582;9.962;2022-12-29T09:58:09;10.50;99.90
4749;DHT22;2388;53.582;9.962;2022-12-29T10:00:50;10.40;99.90
4749;DHT22;2388;53.582;9.962;2022-12-29T10:03:21;10.50;99.90
4749;DHT22;2388;53.582;9.962;2022-12-29T10:08:39;10.40;99.90
4749;DHT22;2388;53.582;9.962;2022-12-29T10:11:35;10.40;99.90
4749;DHT22;2388;53.582;9.962;2022-12-29T10:14:29;10.40;99.90
4749;DHT22;2388;53.582;9.962;2022-12-29T10:17:37;10.40;99.90
4749;DHT22;2388;53.582;9.962;2022-12-29T10:20:24;10.40;99.90
4749;DHT22;2388;53.582;9.962;2022-12-29T10:23:52;10.40;99.90
4749;DHT22;2388;53.582;9.962;2022-12-29T10:25:46;10.40;99.90
4749;DHT22;2388;53.582;9.962;2022-12-29T10:28:22;10.40;99.90
4749;DHT22;2388;53.582;9.962;2022-12-29T10:30:50;10.40;99.90
4749;DHT22;2388;53.582;9.962;2022-12-29T10:33:23;10.40;99.90
4749;DHT22;2388;53.582;9.962;2022-12-29T10:35:52;10.40;99.90
4749;DHT22;2388;53.582;9.962;2022-12-29T10:39:15;10.40;99.90
4749;DHT22;2388;53.582;9.962;2022-12-29T10:41:21;10.50;99.90
4749;DHT22;2388;53.582;9.962;2022-12-29T10:43:51;10.50;99.90
4749;DHT22;2388;53.582;9.962;2022-12-29T10:46:20;10.60;99.90
4749;DHT22;2388;53.582;9.962;2022-12-29T10:48:47;10.60;99.90
4749;DHT22;2388;53.582;9.962;2022-12-29T10:51:28;10.70;99.90
4749;DHT22;2388;53.582;9.962;2022-12-29T10:54:03;10.80;99.90
4749;DHT22;2388;53.582;9.962;2022-12-29T10:59:04;10.90;99.90
4749;DHT22;2388;53.582;9.962;2022-12-29T11:01:37;11.00;99.90
4749;DHT22;2388;53.582;9.962;2022-12-29T11:04:16;11.00;99.90
4749;DHT22;2388;53.582;9.962;2022-12-29T11:06:46;11.10;99.90
4749;DHT22;2388;53.582;9.962;2022-12-29T11:09:18;11.00;99.90
4749;DHT22;2388;53.582;9.962;2022-12-29T11:11:45;10.90;99.90
4749;DHT22;2388;53.582;9.962;2022-12-29T11:14:18;10.90;99.90
4749;DHT22;2388;53.582;9.962;2022-12-29T11:16:44;10.90;99.90
4749;DHT22;2388;53.582;9.962;2022-12-29T11:19:21;10.90;99.90
4749;DHT22;2388;53.582;9.962;2022-12-29T11:21:47;10.90;99.90
4749;DHT22;2388;53.582;9.962;2022-12-29T11:24:28;11.00;99.90
4749;DHT22;2388;53.582;9.962;2022-12-29T11:29:41;11.00;99.90
4749;DHT22;2388;53.582;9.962;2022-12-29T11:32:12;10.90;99.90
4749;DHT22;2388;53.582;9.962;2022-12-29T11:34:38;10.90;99.90
4749;DHT22;2388;53.582;9.962;2022-12-29T11:37:13;10.80;99.90
4749;DHT22;2388;53.582;9.962;2022-12-29T11:39:50;10.80;99.90
4749;DHT22;2388;53.582;9.962;2022-12-29T11:42:19;10.80;99.90
4749;DHT22;2388;53.582;9.962;2022-12-29T11:44:48;10.80;99.90
4749;DHT22;2388;53.582;9.962;2022-12-29T11:47:26;10.80;99.90
4749;DHT22;2388;53.582;9.962;2022-12-29T11:49:55;10.70;99.90
4749;DHT22;2388;53.582;9.962;2022-12-29T11:52:24;10.70;99.90
4749;DHT22;2388;53.582;9.962;2022-12-29T11:54:50;10.70;99.90
4749;DHT22;2388;53.582;9.962;2022-12-29T11:57:17;10.70;99.90
4749;DHT22;2388;53.582;9.962;2022-12-29T11:59:50;10.60;99.90
4749;DHT22;2388;53.582;9.962;2022-12-29T12:07:52;10.70;1.00
4749;DHT22;2388;53.582;9.962;2022-12-29T12:10:27;10.60;1.00
4749;DHT22;2388;53.582;9.962;2022-12-29T12:13:11;10.60;1.00
4749;DHT22;2388;53.582;9.962;2022-12-29T12:15:43;10.50;1.00
4749;DHT22;2388;53.582;9.962;2022-12-29T12:18:33;10.50;1.00
4749;DHT22;2388;53.582;9.962;2022-12-29T12:21:39;10.50;1.00
4749;DHT22;2388;53.582;9.962;2022-12-29T12:26:59;10.40;1.00
4749;DHT22;2388;53.582;9.962;2022-12-29T12:29:34;10.40;1.00
4749;DHT22;2388;53.582;9.962;2022-12-29T12:32:11;10.40;1.00
4749;DHT22;2388;53.582;9.962;2022-12-29T12:34:42;10.40;1.00
4749;DHT22;2388;53.582;9.962;2022-12-29T12:39:56;10.40;9.80
4749;DHT22;2388;53.582;9.962;2022-12-29T12:43:39;10.40;62.60
4749;DHT22;2388;53.582;9.962;2022-12-29T12:45:49;10.40;87.30
4749;DHT22;2388;53.582;9.962;2022-12-29T12:48:43;10.30;92.00
4749;DHT22;2388;53.582;9.962;2022-12-29T12:51:15;10.40;89.10
4749;DHT22;2388;53.582;9.962;2022-12-29T12:56:45;10.40;53.70
4749;DHT22;2388;53.582;9.962;2022-12-29T12:59:42;10.40;39.00
4749;DHT22;2388;53.582;9.962;2022-12-29T13:02:46;10.40;19.20
4749;DHT22;2388;53.582;9.962;2022-12-29T13:16:22;10.40;1.00
4749;DHT22;2388;53.582;9.962;2022-12-29T13:19:01;10.50;1.00
4749;DHT22;2388;53.582;9.962;2022-12-29T13:29:27;10.20;99.90
4749;DHT22;2388;53.582;9.962;2022-12-29T13:32:03;10.10;99.90
4749;DHT22;2388;53.582;9.962;2022-12-29T13:34:41;10.00;99.90
4749;DHT22;2388;53.582;9.962;2022-12-29T13:37:20;9.90;99.90
4749;DHT22;2388;53.582;9.962;2022-12-29T13:39:54;9.80;99.90
4749;DHT22;2388;53.582;9.962;2022-12-29T13:42:21;9.70;99.90
4749;DHT22;2388;53.582;9.962;2022-12-29T13:45:06;9.70;99.90
4749;DHT22;2388;53.582;9.962;2022-12-29T13:47:40;9.70;99.90
4749;DHT22;2388;53.582;9.962;2022-12-29T13:50:14;9.70;99.90
4749;DHT22;2388;53.582;9.962;2022-12-29T13:53:09;9.60;99.90
4749;DHT22;2388;53.582;9.962;2022-12-29T13:55:58;9.60;99.90
4749;DHT22;2388;53.582;9.962;2022-12-29T13:58:37;9.60;99.90
4749;DHT22;2388;53.582;9.962;2022-12-29T14:01:28;9.60;99.90
4749;DHT22;2388;53.582;9.962;2022-12-29T14:04:00;9.60;99.90
4749;DHT22;2388;53.582;9.962;2022-12-29T14:06:32;9.60;99.90
4749;DHT22;2388;53.582;9.962;2022-12-29T14:09:04;9.50;99.90
4749;DHT22;2388;53.582;9.962;2022-12-29T14:11:40;9.00;99.90
4749;DHT22;2388;53.582;9.962;2022-12-29T14:14:19;8.60;99.90
4749;DHT22;2388;53.582;9.962;2022-12-29T14:16:46;8.50;99.90
4749;DHT22;2388;53.582;9.962;2022-12-29T14:19:18;8.40;99.90
4749;DHT22;2388;53.582;9.962;2022-12-29T14:22:00;8.30;99.90
4749;DHT22;2388;53.582;9.962;2022-12-29T14:34:53;8.20;99.90
4749;DHT22;2388;53.582;9.962;2022-12-29T14:37:28;8.20;99.90
4749;DHT22;2388;53.582;9.962;2022-12-29T14:42:41;8.20;99.90
4749;DHT22;2388;53.582;9.962;2022-12-29T14:47:43;8.20;99.90
4749;DHT22;2388;53.582;9.962;2022-12-29T14:52:54;8.30;99.90
4749;DHT22;2388;53.582;9.962;2022-12-29T14:55:43;8.30;99.90
4749;DHT22;2388;53.582;9.962;2022-12-29T14:58:19;8.30;99.90
4749;DHT22;2388;53.582;9.962;2022-12-29T15:00:46;8.30;99.90
4749;DHT22;2388;53.582;9.962;2022-12-29T15:03:29;8.30;99.90
4749;DHT22;2388;53.582;9.962;2022-12-29T15:05:58;8.30;99.90
4749;DHT22;2388;53.582;9.962;2022-12-29T15:08:26;8.30;99.90
4749;DHT22;2388;53.582;9.962;2022-12-29T15:11:06;8.30;99.90
4749;DHT22;2388;53.582;9.962;2022-12-29T15:13:38;8.30;99.90
4749;DHT22;2388;53.582;9.962;2022-12-29T15:16:04;8.30;99.90
4749;DHT22;2388;53.582;9.962;2022-12-29T15:18:32;8.30;99.90
4749;DHT22;2388;53.582;9.962;2022-12-29T15:21:00;8.30;99.90
4749;DHT22;2388;53.582;9.962;2022-12-29T15:23:27;8.30;99.90
4749;DHT22;2388;53.582;9.962;2022-12-29T15:25:59;8.30;99.90
4749;DHT22;2388;53.582;9.962;2022-12-29T15:28:26;8.30;99.90
4749;DHT22;2388;53.582;9.962;2022-12-29T15:31:02;8.30;99.90
4749;DHT22;2388;53.582;9.962;2022-12-29T15:33:28;8.30;99.90
4749;DHT22;2388;53.582;9.962;2022-12-29T15:35:57;8.30;99.90
4749;DHT22;2388;53.582;9.962;2022-12-29T15:38:28;8.30;99.90
4749;DHT22;2388;53.582;9.962;2022-12-29T15:44:14;8.30;99.90
4749;DHT22;2388;53.582;9.962;2022-12-29T15:46:42;8.30;99.90
4749;DHT22;2388;53.582;9.962;2022-12-29T15:49:08;8.30;99.90
4749;DHT22;2388;53.582;9.962;2022-12-29T15:51:38;8.30;99.90
4749;DHT22;2388;53.582;9.962;2022-12-29T15:54:05;8.40;99.90
4749;DHT22;2388;53.582;9.962;2022-12-29T15:56:32;8.30;99.90
4749;DHT22;2388;53.582;9.962;2022-12-29T15:58:59;8.40;99.90
4749;DHT22;2388;53.582;9.962;2022-12-29T16:01:34;8.30;99.90
4749;DHT22;2388;53.582;9.962;2022-12-29T16:04:05;8.30;99.90
4749;DHT22;2388;53.582;9.962;2022-12-29T16:06:33;8.30;99.90
4749;DHT22;2388;53.582;9.962;2022-12-29T16:09:07;8.30;99.90
4749;DHT22;2388;53.582;9.962;2022-12-29T16:11:51;8.30;99.90
4749;DHT22;2388;53.582;9.962;2022-12-29T16:14:20;8.30;99.90
4749;DHT22;2388;53.582;9.962;2022-12-29T16:16:47;8.30;99.90
4749;DHT22;2388;53.582;9.962;2022-12-29T16:19:20;8.20;99.90
4749;DHT22;2388;53.582;9.962;2022-12-29T16:21:47;8.20;99.90
4749;DHT22;2388;53.582;9.962;2022-12-29T16:24:19;8.20;99.90
4749;DHT22;2388;53.582;9.962;2022-12-29T16:26:50;8.20;99.90
4749;DHT22;2388;53.582;9.962;2022-12-29T16:29:17;8.20;99.90
4749;DHT22;2388;53.582;9.962;2022-12-29T16:31:55;8.20;99.90
4749;DHT22;2388;53.582;9.962;2022-12-29T16:34:33;8.20;99.90
4749;DHT22;2388;53.582;9.962;2022-12-29T16:37:32;8.20;99.90
4749;DHT22;2388;53.582;9.962;2022-12-29T16:42:46;8.30;99.90
4749;DHT22;2388;53.582;9.962;2022-12-29T16:50:18;8.30;99.90
4749;DHT22;2388;53.582;9.962;2022-12-29T16:52:50;8.30;99.90
4749;DHT22;2388;53.582;9.962;2022-12-29T16:55:19;8.30;99.90
4749;DHT22;2388;53.582;9.962;2022-12-29T16:57:46;8.30;99.90
4749;DHT22;2388;53.582;9.962;2022-12-29T17:00:22;8.20;99.90
4749;DHT22;2388;53.582;9.962;2022-12-29T17:02:56;8.30;99.90
4749;DHT22;2388;53.582;9.962;2022-12-29T17:05:22;8.30;99.90
4749;DHT22;2388;53.582;9.962;2022-12-29T17:07:48;8.30;99.90
4749;DHT22;2388;53.582;9.962;2022-12-29T17:10:14;8.30;99.90
4749;DHT22;2388;53.582;9.962;2022-12-29T17:12:41;8.40;99.90
4749;DHT22;2388;53.582;9.962;2022-12-29T17:15:15;8.40;99.90
4749;DHT22;2388;53.582;9.962;2022-12-29T17:17:45;8.40;99.90
4749;DHT22;2388;53.582;9.962;2022-12-29T17:20:20;8.40;99.90
4749;DHT22;2388;53.582;9.962;2022-12-29T17:22:47;8.40;99.90
4749;DHT22;2388;53.582;9.962;2022-12-29T17:25:15;8.40;99.90
4749;DHT22;2388;53.582;9.962;2022-12-29T17:27:47;8.40;99.90
4749;DHT22;2388;53.582;9.962;2022-12-29T17:30:17;8.40;99.90
4749;DHT22;2388;53.582;9.962;2022-12-29T17:32:53;8.40;99.90
4749;DHT22;2388;53.582;9.962;2022-12-29T17:35:20;8.40;99.90
4749;DHT22;2388;53.582;9.962;2022-12-29T17:37:47;8.40;99.90
4749;DHT22;2388;53.582;9.962;2022-12-29T17:40:15;8.40;99.90
4749;DHT22;2388;53.582;9.962;2022-12-29T17:42:47;8.50;99.90
4749;DHT22;2388;53.582;9.962;2022-12-29T17:45:14;8.50;99.90
4749;DHT22;2388;53.582;9.962;2022-12-29T17:47:41;8.50;99.90
4749;DHT22;2388;53.582;9.962;2022-12-29T17:50:11;8.60;99.90
4749;DHT22;2388;53.582;9.962;2022-12-29T17:52:37;8.60;99.90
4749;DHT22;2388;53.582;9.962;2022-12-29T17:55:03;8.60;99.90
4749;DHT22;2388;53.582;9.962;2022-12-29T17:57:29;8.70;99.90
4749;DHT22;2388;53.582;9.962;2022-12-29T17:59:54;8.70;99.90
4749;DHT22;2388;53.582;9.962;2022-12-29T18:02:30;8.70;99.90
4749;DHT22;2388;53.582;9.962;2022-12-29T18:04:57;8.80;99.90
4749;DHT22;2388;53.582;9.962;2022-12-29T18:07:27;8.80;99.90
4749;DHT22;2388;53.582;9.962;2022-12-29T18:09:53;8.80;99.90
4749;DHT22;2388;53.582;9.962;2022-12-29T18:12:37;8.80;99.90
4749;DHT22;2388;53.582;9.962;2022-12-29T18:15:03;8.80;99.90
4749;DHT22;2388;53.582;9.962;2022-12-29T18:17:29;8.80;99.90
4749;DHT22;2388;53.582;9.962;2022-12-29T18:19:55;8.80;99.90
4749;DHT22;2388;53.582;9.962;2022-12-29T18:22:22;8.80;99.90